createdAt,value
2019-04-05T00:00:33.284Z,49.70
2019-04-05T00:01:33.408Z,55.30
2019-04-05T00:02:33.268Z,57.50
2019-04-05T00:03:33.344Z,48.80
2019-04-05T00:04:33.249Z,46.30
2019-04-05T00:05:33.342Z,51.50
2019-04-05T00:06:33.228Z,54.60
2019-04-05T00:07:33.238Z,47.20
2019-04-05T00:08:33.233Z,55.00
2019-04-05T00:09:33.257Z,52.70
2019-04-05T00:10:33.183Z,46.20
2019-04-05T00:11:33.275Z,48.30
2019-04-05T00:12:33.166Z,53.00
2019-04-05T00:13:33.206Z,57.50
2019-04-05T00:14:33.138Z,56.90
2019-04-05T00:15:33.193Z,52.00
2019-04-05T00:16:33.117Z,58.40
2019-04-05T00:17:33.208Z,65.70
2019-04-05T00:18:33.222Z,51.20
2019-04-05T00:19:33.123Z,51.00
2019-04-05T00:20:33.083Z,48.60
2019-04-05T00:21:33.140Z,44.20
2019-04-05T00:22:33.060Z,48.70
2019-04-05T00:23:33.176Z,48.80
2019-04-05T00:24:33.052Z,46.20
2019-04-05T00:25:33.063Z,51.10
2019-04-05T00:26:33.023Z,52.90
2019-04-05T00:27:33.083Z,52.50
2019-04-05T00:28:32.996Z,54.50
2019-04-05T00:29:33.123Z,50.90
2019-04-05T00:30:33.098Z,47.10
2019-04-05T00:31:32.997Z,54.50
2019-04-05T00:32:32.998Z,46.20
2019-04-05T00:33:33.040Z,61.10
2019-04-05T00:34:32.997Z,47.50
2019-04-05T00:35:33.066Z,45.20
2019-04-05T00:36:32.910Z,52.60
2019-04-05T00:37:32.937Z,49.50
2019-04-05T00:38:32.890Z,55.10
2019-04-05T00:39:34.005Z,46.70
2019-04-05T00:40:32.859Z,50.60
2019-04-05T00:41:33.255Z,44.20
2019-04-05T00:42:32.835Z,43.50
2019-04-05T00:43:32.884Z,57.50
2019-04-05T00:44:32.864Z,46.40
2019-04-05T00:45:32.899Z,44.40
2019-04-05T00:46:32.801Z,46.90
2019-04-05T00:47:32.901Z,46.60
2019-04-05T00:48:32.793Z,50.10
2019-04-05T00:49:32.850Z,42.90
2019-04-05T00:50:32.754Z,53.00
2019-04-05T00:51:32.827Z,51.70
2019-04-05T00:52:32.734Z,43.40
2019-04-05T00:53:32.845Z,57.80
2019-04-05T00:54:32.752Z,45.60
2019-04-05T00:55:32.756Z,47.00
2019-04-05T00:56:32.689Z,41.90
2019-04-05T00:57:32.764Z,42.80
2019-04-05T00:58:32.667Z,40.30
2019-04-05T00:59:32.710Z,45.90
2019-04-05T01:00:32.648Z,45.80
2019-04-05T01:01:32.693Z,42.50
2019-04-05T01:02:32.624Z,45.90
2019-04-05T01:03:32.712Z,40.10
2019-04-05T01:04:32.655Z,41.30
2019-04-05T01:05:32.647Z,40.80
2019-04-05T01:06:32.589Z,48.40
2019-04-05T01:07:32.632Z,42.20
2019-04-05T01:08:32.560Z,45.50
2019-04-05T01:09:32.673Z,40.80
2019-04-05T01:10:32.564Z,43.10
2019-04-05T01:11:32.555Z,41.30
2019-04-05T01:12:33.012Z,48.80
2019-04-05T01:13:32.575Z,53.60
2019-04-05T01:14:32.497Z,49.10
2019-04-05T01:15:40.693Z,40.50
2019-04-05T01:16:33.473Z,42.80
2019-04-05T01:17:32.502Z,45.20
2019-04-05T01:18:32.455Z,48.40
2019-04-05T01:19:32.513Z,55.00
2019-04-05T01:20:32.453Z,53.80
2019-04-05T01:21:32.523Z,67.80
2019-04-05T01:22:32.412Z,65.90
2019-04-05T01:23:32.443Z,47.20
2019-04-05T01:24:32.402Z,58.60
2019-04-05T01:25:33.507Z,61.30
2019-04-05T01:26:32.367Z,51.00
2019-04-05T01:27:32.465Z,44.50
2019-04-05T01:28:32.349Z,49.90
2019-04-05T01:29:32.394Z,37.90
2019-04-05T01:30:32.367Z,44.00
2019-04-05T01:31:32.388Z,51.00
2019-04-05T01:32:32.299Z,61.80
2019-04-05T01:33:32.404Z,43.20
2019-04-05T01:34:32.312Z,47.00
2019-04-05T01:35:32.316Z,45.80
2019-04-05T01:36:32.285Z,54.80
2019-04-05T01:37:32.330Z,62.70
2019-04-05T01:38:32.243Z,56.50
2019-04-05T01:39:32.340Z,55.90
2019-04-05T01:40:32.215Z,50.10
2019-04-05T01:41:32.287Z,54.70
2019-04-05T01:42:32.199Z,63.20
2019-04-05T01:43:32.271Z,50.50
2019-04-05T01:44:32.183Z,58.20
2019-04-05T01:45:32.280Z,49.20
2019-04-05T01:46:32.175Z,49.70
2019-04-05T01:47:32.195Z,55.20
2019-04-05T01:48:32.131Z,56.90
2019-04-05T01:49:32.207Z,67.10
2019-04-05T01:50:32.111Z,59.50
2019-04-05T01:51:32.156Z,54.80
2019-04-05T01:52:32.127Z,58.40
2019-04-05T01:53:32.131Z,44.40
2019-04-05T01:54:32.075Z,50.60
2019-04-05T01:55:32.151Z,59.20
2019-04-05T01:56:32.079Z,45.50
2019-04-05T01:57:32.061Z,60.30
2019-04-05T01:58:32.030Z,57.90
2019-04-05T01:59:32.082Z,63.40
2019-04-05T02:00:32.005Z,63.00
2019-04-05T02:01:32.121Z,76.70
2019-04-05T02:02:31.983Z,73.80
2019-04-05T02:03:31.996Z,98.10
2019-04-05T02:04:31.964Z,83.10
2019-04-05T02:05:32.013Z,72.80
2019-04-05T02:06:31.977Z,64.00
2019-04-05T02:07:32.024Z,64.60
2019-04-05T02:08:31.923Z,67.10
2019-04-05T02:09:31.936Z,68.00
2019-04-05T02:10:31.897Z,75.20
2019-04-05T02:11:33.002Z,116.80
2019-04-05T02:12:31.913Z,136.50
2019-04-05T02:13:31.962Z,96.50
2019-04-05T02:14:31.863Z,90.70
2019-04-05T02:15:31.876Z,81.50
2019-04-05T02:16:31.868Z,62.90
2019-04-05T02:17:35.710Z,71.30
2019-04-05T02:18:31.808Z,76.10
2019-04-05T02:19:31.902Z,74.40
2019-04-05T02:20:31.795Z,62.20
2019-04-05T02:21:31.849Z,81.20
2019-04-05T02:22:31.789Z,65.50
2019-04-05T02:23:31.836Z,63.50
2019-04-05T02:24:31.756Z,70.10
2019-04-05T02:25:31.847Z,62.80
2019-04-05T02:26:31.729Z,67.00
2019-04-05T02:27:31.786Z,65.00
2019-04-05T02:28:31.705Z,62.20
2019-04-05T02:29:31.771Z,56.50
2019-04-05T02:30:31.803Z,69.40
2019-04-05T02:31:31.794Z,64.30
2019-04-05T02:32:31.690Z,65.20
2019-04-05T02:33:31.717Z,74.90
2019-04-05T02:34:31.645Z,76.90
2019-04-05T02:35:31.720Z,77.80
2019-04-05T02:36:31.618Z,64.00
2019-04-05T02:37:31.764Z,86.30
2019-04-05T02:38:31.598Z,70.10
2019-04-05T02:39:31.652Z,65.30
2019-04-05T02:40:31.586Z,78.00
2019-04-05T02:41:31.653Z,108.70
2019-04-05T02:42:31.580Z,78.90
2019-04-05T02:43:31.697Z,77.80
2019-04-05T02:44:31.536Z,75.00
2019-04-05T02:45:31.592Z,81.90
2019-04-05T02:46:31.513Z,72.70
2019-04-05T02:47:31.591Z,63.60
2019-04-05T02:48:31.522Z,66.70
2019-04-05T02:49:31.604Z,74.70
2019-04-05T02:50:31.464Z,61.70
2019-04-05T02:51:31.534Z,68.40
2019-04-05T02:52:31.448Z,88.30
2019-04-05T02:53:31.554Z,62.30
2019-04-05T02:54:31.494Z,85.70
2019-04-05T02:55:31.545Z,85.90
2019-04-05T02:56:31.423Z,86.70
2019-04-05T02:57:31.453Z,83.90
2019-04-05T02:58:31.418Z,76.20
2019-04-05T02:59:31.476Z,83.90
2019-04-05T03:00:31.380Z,74.80
2019-04-05T03:01:31.378Z,101.30
2019-04-05T03:02:31.344Z,65.30
2019-04-05T03:03:31.526Z,53.30
2019-04-05T03:04:31.321Z,65.80
2019-04-05T03:05:31.421Z,80.60
2019-04-05T03:06:31.319Z,83.00
2019-04-05T03:07:31.326Z,73.70
2019-04-05T03:08:31.321Z,74.30
2019-04-05T03:09:31.334Z,79.10
2019-04-05T03:10:31.254Z,79.90
2019-04-05T03:11:31.346Z,66.40
2019-04-05T03:12:31.241Z,74.50
2019-04-05T03:13:31.270Z,95.10
2019-04-05T03:14:31.270Z,80.70
2019-04-05T03:15:31.277Z,75.60
2019-04-05T03:16:40.039Z,77.50
2019-04-05T03:17:32.188Z,119.90
2019-04-05T03:18:31.308Z,95.90
2019-04-05T03:19:31.350Z,97.40
2019-04-05T03:20:31.204Z,92.40
2019-04-05T03:21:31.197Z,73.00
2019-04-05T03:22:31.225Z,71.30
2019-04-05T03:23:31.123Z,92.10
2019-04-05T03:24:31.188Z,100.30
2019-04-05T03:25:31.091Z,126.80
2019-04-05T03:26:31.152Z,102.30
2019-04-05T03:27:31.075Z,91.80
2019-04-05T03:28:31.162Z,85.60
2019-04-05T03:29:31.082Z,78.20
2019-04-05T03:30:31.082Z,84.90
2019-04-05T03:31:31.047Z,84.00
2019-04-05T03:32:31.087Z,80.70
2019-04-05T03:33:31.046Z,119.80
2019-04-05T03:34:31.137Z,96.50
2019-04-05T03:35:30.991Z,106.50
2019-04-05T03:36:31.013Z,96.20
2019-04-05T03:37:30.978Z,104.50
2019-04-05T03:38:31.032Z,82.90
2019-04-05T03:39:31.107Z,84.20
2019-04-05T03:40:31.065Z,90.50
2019-04-05T03:41:30.925Z,102.70
2019-04-05T03:42:30.955Z,109.30
2019-04-05T03:43:30.904Z,79.20
2019-04-05T03:44:30.975Z,85.80
2019-04-05T03:45:30.909Z,102.80
2019-04-05T03:46:30.985Z,91.60
2019-04-05T03:47:30.864Z,97.40
2019-04-05T03:48:30.897Z,114.90
2019-04-05T03:49:30.838Z,92.70
2019-04-05T03:50:30.936Z,103.90
2019-04-05T03:51:30.842Z,86.70
2019-04-05T03:52:30.946Z,81.40
2019-04-05T03:53:30.815Z,79.00
2019-04-05T03:54:30.839Z,75.30
2019-04-05T03:55:30.805Z,82.60
2019-04-05T03:56:30.844Z,105.10
2019-04-05T03:57:30.769Z,91.20
2019-04-05T03:58:30.853Z,100.00
2019-04-05T03:59:30.738Z,118.70
2019-04-05T04:00:30.808Z,94.20
2019-04-05T04:01:30.713Z,86.60
2019-04-05T04:02:30.792Z,87.70
2019-04-05T04:03:30.692Z,88.10
2019-04-05T04:04:30.796Z,117.20
2019-04-05T04:05:30.711Z,88.60
2019-04-05T04:06:30.711Z,108.00
2019-04-05T04:07:30.651Z,157.50
2019-04-05T04:08:30.720Z,99.70
2019-04-05T04:09:30.629Z,119.60
2019-04-05T04:10:30.772Z,131.70
2019-04-05T04:11:30.604Z,90.20
2019-04-05T04:12:30.648Z,94.40
2019-04-05T04:13:30.586Z,120.10
2019-04-05T04:14:30.674Z,94.80
2019-04-05T04:15:30.567Z,147.40
2019-04-05T04:16:30.714Z,104.90
2019-04-05T04:17:30.538Z,106.00
2019-04-05T04:18:30.587Z,95.90
2019-04-05T04:19:30.532Z,100.50
2019-04-05T04:20:30.615Z,94.20
2019-04-05T04:21:30.525Z,105.30
2019-04-05T04:22:30.614Z,127.90
2019-04-05T04:23:30.489Z,94.60
2019-04-05T04:24:30.527Z,139.40
2019-04-05T04:25:30.451Z,135.10
2019-04-05T04:26:30.568Z,142.40
2019-04-05T04:27:30.458Z,134.60
2019-04-05T04:28:30.454Z,145.80
2019-04-05T04:29:30.414Z,152.10
2019-04-05T04:30:30.476Z,118.60
2019-04-05T04:31:30.419Z,149.50
2019-04-05T04:32:30.477Z,129.10
2019-04-05T04:33:30.370Z,100.10
2019-04-05T04:34:30.393Z,122.60
2019-04-05T04:35:30.355Z,136.70
2019-04-05T04:36:30.440Z,149.50
2019-04-05T04:37:30.324Z,180.30
2019-04-05T04:38:30.426Z,176.60
2019-04-05T04:39:30.315Z,128.00
2019-04-05T04:40:30.331Z,182.60
2019-04-05T04:41:32.006Z,168.10
2019-04-05T04:42:30.344Z,122.70
2019-04-05T04:43:30.275Z,135.60
2019-04-05T04:44:30.354Z,103.50
2019-04-05T04:45:30.243Z,150.10
2019-04-05T04:46:30.318Z,133.40
2019-04-05T04:47:30.219Z,122.20
2019-04-05T04:48:30.290Z,142.50
2019-04-05T04:49:30.200Z,118.00
2019-04-05T04:50:30.301Z,104.30
2019-04-05T04:51:30.215Z,128.60
2019-04-05T04:52:31.493Z,191.50
2019-04-05T04:53:30.276Z,141.60
2019-04-05T04:54:30.216Z,193.20
2019-04-05T04:55:30.132Z,189.70
2019-04-05T04:56:30.263Z,114.00
2019-04-05T04:57:30.133Z,131.20
2019-04-05T04:58:30.245Z,151.80
2019-04-05T04:59:30.109Z,120.10
2019-04-05T05:00:30.164Z,115.90
2019-04-05T05:01:30.069Z,131.60
2019-04-05T05:02:30.214Z,120.10
2019-04-05T05:03:30.073Z,169.60
2019-04-05T05:04:30.087Z,152.70
2019-04-05T05:05:30.024Z,145.90
2019-04-05T05:06:30.107Z,138.70
2019-04-05T05:07:30.026Z,161.70
2019-04-05T05:08:30.125Z,128.70
2019-04-05T05:09:29.979Z,160.80
2019-04-05T05:10:30.068Z,119.20
2019-04-05T05:11:29.968Z,121.50
2019-04-05T05:12:30.134Z,129.00
2019-04-05T05:13:29.941Z,120.00
2019-04-05T05:14:30.047Z,150.10
2019-04-05T05:15:29.915Z,156.50
2019-04-05T05:16:29.963Z,120.60
2019-04-05T05:17:38.306Z,148.50
2019-04-05T05:18:30.886Z,124.30
2019-04-05T05:19:29.997Z,131.40
2019-04-05T05:20:29.867Z,123.60
2019-04-05T05:21:29.914Z,131.00
2019-04-05T05:22:29.870Z,120.30
2019-04-05T05:23:29.911Z,139.30
2019-04-05T05:24:29.933Z,138.60
2019-04-05T05:25:29.921Z,122.30
2019-04-05T05:26:29.802Z,123.10
2019-04-05T05:27:29.864Z,172.00
2019-04-05T05:28:32.684Z,148.10
2019-04-05T05:29:29.846Z,153.30
2019-04-05T05:30:29.765Z,129.80
2019-04-05T05:31:29.876Z,133.40
2019-04-05T05:32:29.764Z,169.00
2019-04-05T05:33:29.913Z,133.00
2019-04-05T05:34:29.713Z,168.50
2019-04-05T05:35:29.786Z,137.10
2019-04-05T05:36:29.693Z,151.00
2019-04-05T05:37:32.637Z,128.00
2019-04-05T05:38:29.709Z,111.00
2019-04-05T05:39:29.718Z,127.40
2019-04-05T05:40:35.092Z,172.70
2019-04-05T05:41:30.755Z,146.60
2019-04-05T05:42:29.628Z,138.70
2019-04-05T05:43:29.777Z,159.00
2019-04-05T05:44:29.603Z,173.70
2019-04-05T05:45:29.651Z,127.10
2019-04-05T05:46:29.808Z,140.70
2019-04-05T05:47:29.665Z,125.50
2019-04-05T05:48:31.010Z,127.50
2019-04-05T05:49:29.689Z,131.10
2019-04-05T05:50:29.617Z,136.60
2019-04-05T05:51:29.593Z,140.40
2019-04-05T05:52:29.520Z,105.50
2019-04-05T05:53:29.637Z,121.80
2019-04-05T05:54:29.499Z,132.20
2019-04-05T05:55:30.263Z,132.30
2019-04-05T05:56:29.480Z,107.70
2019-04-05T05:57:29.482Z,139.00
2019-04-05T05:58:29.487Z,104.10
2019-04-05T05:59:30.332Z,133.50
2019-04-05T06:00:31.085Z,129.80
2019-04-05T06:01:29.430Z,141.30
2019-04-05T06:02:29.416Z,137.50
2019-04-05T06:03:29.471Z,113.20
2019-04-05T06:04:29.416Z,135.60
2019-04-05T06:05:29.389Z,121.90
2019-04-05T06:06:29.368Z,160.00
2019-04-05T06:07:29.366Z,174.90
2019-04-05T06:08:29.494Z,174.20
2019-04-05T06:09:29.369Z,153.70
2019-04-05T06:10:29.328Z,148.00
2019-04-05T06:11:29.327Z,158.00
2019-04-05T06:12:29.311Z,168.30
2019-04-05T06:13:29.311Z,144.30
2019-04-05T06:14:29.310Z,127.10
2019-04-05T06:15:29.297Z,169.70
2019-04-05T06:16:29.269Z,132.50
2019-04-05T06:17:29.273Z,170.00
2019-04-05T06:18:29.344Z,194.10
2019-04-05T06:19:29.272Z,148.40
2019-04-05T06:20:29.233Z,148.70
2019-04-05T06:21:29.233Z,166.20
2019-04-05T06:22:29.222Z,125.00
2019-04-05T06:23:33.850Z,136.00
2019-04-05T06:24:30.221Z,134.80
2019-04-05T06:25:29.179Z,137.00
2019-04-05T06:26:29.161Z,110.00
2019-04-05T06:27:29.151Z,136.40
2019-04-05T06:28:29.197Z,163.50
2019-04-05T06:29:29.154Z,141.10
2019-04-05T06:30:29.212Z,152.20
2019-04-05T06:31:29.157Z,125.40
2019-04-05T06:32:29.113Z,145.30
2019-04-05T06:33:31.873Z,152.90
2019-04-05T06:34:29.203Z,144.50
2019-04-05T06:35:29.190Z,147.90
2019-04-05T06:36:29.060Z,122.30
2019-04-05T06:37:29.048Z,111.00
2019-04-05T06:38:29.032Z,132.90
2019-04-05T06:39:29.050Z,127.70
2019-04-05T06:40:40.196Z,215.50
2019-04-05T06:41:30.015Z,123.90
2019-04-05T06:42:29.028Z,156.10
2019-04-05T06:43:28.979Z,128.60
2019-04-05T06:44:28.998Z,135.90
2019-04-05T06:45:28.985Z,96.00
2019-04-05T06:46:28.955Z,98.90
2019-04-05T06:47:28.949Z,94.40
2019-04-05T06:48:29.691Z,100.90
2019-04-05T06:49:28.916Z,106.00
2019-04-05T06:50:28.966Z,122.00
2019-04-05T06:51:28.890Z,108.50
2019-04-05T06:52:28.931Z,100.20
2019-04-05T06:53:28.872Z,120.90
2019-04-05T06:54:28.865Z,103.10
2019-04-05T06:55:28.871Z,101.60
2019-04-05T06:56:28.840Z,96.90
2019-04-05T06:57:28.823Z,89.80
2019-04-05T06:58:29.477Z,87.80
2019-04-05T06:59:28.839Z,105.10
2019-04-05T07:00:28.833Z,86.60
2019-04-05T07:01:28.795Z,88.10
2019-04-05T07:02:28.790Z,105.50
2019-04-05T07:03:28.789Z,75.30
2019-04-05T07:04:30.998Z,73.90
2019-04-05T07:05:28.772Z,81.50
2019-04-05T07:06:28.768Z,77.50
2019-04-05T07:07:28.714Z,88.10
2019-04-05T07:08:28.715Z,78.40
2019-04-05T07:09:28.694Z,62.00
2019-04-05T07:10:28.718Z,66.70
2019-04-05T07:11:28.702Z,74.50
2019-04-05T07:12:28.685Z,61.70
2019-04-05T07:13:28.650Z,76.80
2019-04-05T07:14:28.651Z,81.20
2019-04-05T07:15:28.664Z,84.70
2019-04-05T07:16:28.664Z,89.20
2019-04-05T07:17:28.612Z,79.40
2019-04-05T07:18:34.283Z,79.00
2019-04-05T07:19:29.591Z,74.00
2019-04-05T07:20:28.582Z,81.00
2019-04-05T07:21:28.587Z,89.40
2019-04-05T07:22:38.534Z,93.10
2019-04-05T07:23:29.539Z,90.60
2019-04-05T07:24:28.535Z,85.50
2019-04-05T07:25:29.433Z,72.60
2019-04-05T07:26:28.562Z,61.30
2019-04-05T07:27:28.494Z,63.20
2019-04-05T07:28:28.498Z,65.80
2019-04-05T07:29:28.476Z,64.00
2019-04-05T07:30:28.953Z,61.20
2019-04-05T07:31:28.476Z,67.90
2019-04-05T07:32:31.134Z,65.50
2019-04-05T07:33:28.432Z,57.30
2019-04-05T07:34:28.486Z,75.90
2019-04-05T07:35:33.688Z,58.40
2019-04-05T07:36:29.544Z,61.30
2019-04-05T07:37:28.406Z,66.80
2019-04-05T07:38:28.504Z,63.90
2019-04-05T07:39:28.383Z,59.80
2019-04-05T07:40:28.414Z,69.20
2019-04-05T07:41:28.376Z,73.70
2019-04-05T07:42:28.427Z,56.40
2019-04-05T07:43:28.317Z,61.40
2019-04-05T07:44:28.445Z,64.50
2019-04-05T07:45:28.658Z,82.00
2019-04-05T07:46:28.379Z,69.60
2019-04-05T07:47:28.312Z,54.20
2019-04-05T07:48:28.365Z,51.50
2019-04-05T07:49:28.274Z,66.50
2019-04-05T07:50:28.278Z,57.90
2019-04-05T07:51:28.226Z,65.00
2019-04-05T07:52:28.334Z,60.40
2019-04-05T07:53:28.214Z,62.70
2019-04-05T07:54:28.327Z,60.00
2019-04-05T07:55:28.191Z,54.60
2019-04-05T07:56:28.243Z,59.20
2019-04-05T07:57:28.191Z,68.60
2019-04-05T07:58:28.225Z,59.50
2019-04-05T07:59:28.150Z,74.40
2019-04-05T08:00:28.239Z,83.70
2019-04-05T08:01:28.117Z,72.60
2019-04-05T08:02:28.179Z,60.50
2019-04-05T08:03:28.110Z,61.00
2019-04-05T08:05:29.130Z,52.00
2019-04-05T08:06:28.182Z,58.50
2019-04-05T08:07:28.060Z,53.60
2019-04-05T08:08:28.132Z,54.00
2019-04-05T08:09:28.030Z,50.20
2019-04-05T08:10:28.110Z,70.40
2019-04-05T08:11:28.017Z,55.10
2019-04-05T08:12:28.154Z,61.00
2019-04-05T08:13:27.994Z,60.70
2019-04-05T08:14:28.040Z,49.60
2019-04-05T08:15:27.988Z,57.50
2019-04-05T08:16:27.962Z,61.80
2019-04-05T08:17:27.995Z,63.00
2019-04-05T08:18:27.970Z,49.70
2019-04-05T08:19:27.936Z,48.70
2019-04-05T08:20:27.917Z,49.90
2019-04-05T08:21:27.899Z,41.80
2019-04-05T08:22:27.914Z,44.30
2019-04-05T08:23:27.933Z,50.10
2019-04-05T08:24:27.898Z,50.40
2019-04-05T08:25:27.860Z,57.00
2019-04-05T08:26:27.850Z,47.10
2019-04-05T08:27:27.846Z,42.30
2019-04-05T08:28:29.635Z,46.60
2019-04-05T08:29:27.820Z,46.50
2019-04-05T08:30:27.805Z,43.10
2019-04-05T08:31:27.790Z,43.00
2019-04-05T08:32:27.821Z,42.50
2019-04-05T08:33:27.813Z,44.70
2019-04-05T08:34:27.783Z,39.70
2019-04-05T08:35:27.754Z,42.30
2019-04-05T08:36:27.751Z,42.90
2019-04-05T08:37:27.735Z,42.80
2019-04-05T08:38:27.760Z,47.70
2019-04-05T08:39:27.707Z,51.10
2019-04-05T08:40:27.705Z,47.40
2019-04-05T08:41:27.689Z,44.30
2019-04-05T08:42:27.680Z,41.30
2019-04-05T08:43:27.676Z,40.10
2019-04-05T08:44:27.690Z,35.00
2019-04-05T08:45:27.657Z,31.10
2019-04-05T08:46:27.634Z,34.20
2019-04-05T08:47:27.632Z,35.80
2019-04-05T08:48:27.758Z,40.50
2019-04-05T08:49:27.665Z,45.10
2019-04-05T08:50:27.595Z,42.90
2019-04-05T08:51:27.612Z,38.30
2019-04-05T08:52:27.575Z,37.10
2019-04-05T08:53:27.612Z,46.30
2019-04-05T08:54:33.239Z,45.70
2019-04-05T08:55:28.541Z,39.60
2019-04-05T08:56:27.532Z,34.30
2019-04-05T08:57:27.513Z,37.60
2019-04-05T08:58:33.190Z,35.00
2019-04-05T08:59:28.532Z,35.50
2019-04-05T09:00:27.481Z,34.30
2019-04-05T09:01:27.473Z,34.60
2019-04-05T09:02:27.480Z,36.60
2019-04-05T09:03:27.448Z,42.70
2019-04-05T09:04:27.470Z,42.50
2019-04-05T09:05:27.432Z,38.10
2019-04-05T09:06:27.422Z,40.40
2019-04-05T09:07:27.407Z,40.70
2019-04-05T09:08:27.393Z,39.40
2019-04-05T09:09:27.421Z,38.00
2019-04-05T09:10:27.397Z,33.90
2019-04-05T09:11:27.351Z,36.50
2019-04-05T09:12:27.352Z,37.90
2019-04-05T09:13:27.342Z,37.30
2019-04-05T09:14:27.335Z,40.80
2019-04-05T09:15:27.350Z,36.00
2019-04-05T09:16:27.316Z,39.60
2019-04-05T09:17:27.298Z,36.40
2019-04-05T09:18:27.289Z,44.80
2019-04-05T09:19:27.289Z,42.10
2019-04-05T09:20:27.303Z,44.20
2019-04-05T09:21:27.250Z,47.40
2019-04-05T09:22:27.269Z,48.10
2019-04-05T09:23:27.230Z,48.50
2019-04-05T09:24:27.229Z,42.90
2019-04-05T09:25:27.289Z,44.20
2019-04-05T09:26:27.202Z,43.20
2019-04-05T09:27:27.187Z,41.10
2019-04-05T09:28:27.175Z,39.50
2019-04-05T09:29:27.176Z,44.80
2019-04-05T09:30:27.225Z,37.40
2019-04-05T09:31:27.142Z,42.70
2019-04-05T09:32:27.144Z,42.50
2019-04-05T09:33:27.125Z,36.10
2019-04-05T09:34:27.140Z,37.70
2019-04-05T09:35:27.120Z,41.20
2019-04-05T09:36:27.099Z,44.30
2019-04-05T09:37:27.109Z,35.70
2019-04-05T09:38:27.068Z,35.90
2019-04-05T09:39:27.067Z,35.40
2019-04-05T09:40:27.083Z,37.50
2019-04-05T09:41:27.033Z,38.50
2019-04-05T09:42:27.035Z,38.50
2019-04-05T09:43:27.018Z,41.80
2019-04-05T09:49:36.965Z,37.50
2019-04-05T09:50:26.038Z,38.90
2019-04-05T09:51:26.055Z,36.70
2019-04-05T09:52:26.016Z,42.80
2019-04-05T09:53:26.008Z,42.10
2019-04-05T09:54:25.995Z,44.30
2019-04-05T09:55:25.989Z,41.00
2019-04-05T09:56:26.129Z,42.80
2019-04-05T09:57:25.977Z,41.20
2019-04-05T09:58:25.967Z,39.30
2019-04-05T09:59:25.948Z,38.10
2019-04-05T10:00:25.936Z,36.50
2019-04-05T10:01:25.952Z,43.30
2019-04-05T10:02:25.902Z,41.60
2019-04-05T10:03:25.904Z,39.20
2019-04-05T10:04:25.936Z,40.30
2019-04-05T10:05:25.879Z,38.10
2019-04-05T10:06:25.895Z,35.50
2019-04-05T10:07:25.883Z,36.90
2019-04-05T10:08:25.842Z,36.70
2019-04-05T10:09:25.849Z,33.70
2019-04-05T10:10:25.818Z,37.60
2019-04-05T10:11:25.821Z,33.10
2019-04-05T10:12:25.827Z,31.80
2019-04-05T10:13:25.791Z,37.90
2019-04-05T10:14:25.771Z,33.40
2019-04-05T10:15:25.768Z,33.20
2019-04-05T10:16:25.747Z,33.50
2019-04-05T10:17:25.796Z,33.00
2019-04-05T10:18:25.752Z,28.50
2019-04-05T10:19:25.751Z,32.60
2019-04-05T10:20:25.705Z,30.90
2019-04-05T10:21:25.703Z,32.10
2019-04-05T10:22:25.715Z,33.40
2019-04-05T10:23:25.677Z,35.20
2019-04-05T10:24:25.672Z,32.10
2019-04-05T10:25:25.806Z,33.60
2019-04-05T10:26:25.652Z,32.70
2019-04-05T10:27:25.725Z,34.00
2019-04-05T10:28:25.691Z,35.00
2019-04-05T10:30:26.667Z,34.10
2019-04-05T10:32:26.653Z,35.70
2019-04-05T10:33:27.857Z,39.20
2019-04-05T10:34:25.550Z,36.70
2019-04-05T10:35:27.895Z,37.10
2019-04-05T10:36:25.534Z,36.90
2019-04-05T10:37:28.024Z,35.00
2019-04-05T10:38:25.545Z,33.50
2019-04-05T10:39:28.106Z,36.40
2019-04-05T10:40:25.492Z,35.60
2019-04-05T10:41:28.224Z,34.70
2019-04-05T10:42:25.507Z,37.70
2019-04-05T10:44:26.513Z,38.50
2019-04-05T10:45:28.575Z,39.80
2019-04-05T10:46:25.438Z,40.40
2019-04-05T10:47:28.263Z,37.90
2019-04-05T10:48:25.441Z,38.00
2019-04-05T10:50:26.451Z,38.90
2019-04-05T10:52:26.414Z,37.40
2019-04-05T10:53:30.371Z,35.20
2019-04-05T10:54:25.346Z,36.70
2019-04-05T10:56:26.375Z,34.40
2019-04-05T10:58:26.385Z,36.70
2019-04-05T11:00:26.333Z,35.20
2019-04-05T11:02:26.381Z,37.50
2019-04-05T11:03:28.710Z,40.60
2019-04-05T11:04:25.262Z,37.70
2019-04-05T11:06:26.287Z,37.10
2019-04-05T11:08:26.272Z,37.20
2019-04-05T11:10:26.270Z,38.40
2019-04-05T11:12:26.217Z,39.70
2019-04-05T11:13:28.674Z,40.70
2019-04-05T11:14:25.123Z,35.30
2019-04-05T11:15:31.034Z,37.80
2019-04-05T11:16:25.113Z,39.70
2019-04-05T11:17:28.886Z,34.90
2019-04-05T11:18:25.103Z,37.00
2019-04-05T11:19:30.265Z,37.40
2019-04-05T11:20:25.067Z,34.90
2019-04-05T11:21:29.038Z,32.70
2019-04-05T11:22:25.061Z,34.00
2019-04-05T11:24:28.446Z,33.00
2019-04-05T11:25:25.005Z,31.90
2019-04-05T11:26:27.106Z,35.70
2019-04-05T11:27:24.995Z,31.50
2019-04-05T11:28:27.252Z,30.70
2019-04-05T11:29:25.013Z,35.80
2019-04-05T11:30:27.038Z,34.20
2019-04-05T11:31:24.958Z,30.20
2019-04-05T11:32:24.996Z,31.20
2019-04-05T11:33:24.918Z,28.80
2019-04-05T11:34:25.047Z,31.40
2019-04-05T11:35:24.898Z,30.60
2019-04-05T11:36:24.931Z,31.00
2019-04-05T11:37:24.868Z,31.00
2019-04-05T11:38:24.933Z,28.80
2019-04-05T11:39:24.889Z,30.20
2019-04-05T11:40:24.950Z,32.80
2019-04-05T11:41:24.823Z,31.40
2019-04-05T11:42:24.864Z,31.80
2019-04-05T11:43:26.946Z,31.40
2019-04-05T11:44:24.899Z,32.50
2019-04-05T11:45:24.807Z,32.20
2019-04-05T11:46:24.890Z,29.30
2019-04-05T11:47:24.769Z,31.90
2019-04-05T11:48:24.800Z,30.20
2019-04-05T11:49:24.794Z,30.70
2019-04-05T11:50:34.460Z,30.50
2019-04-05T11:51:25.757Z,32.70
2019-04-05T11:52:24.824Z,27.60
2019-04-05T11:53:24.710Z,27.50
2019-04-05T11:54:24.768Z,27.20
2019-04-05T11:55:24.681Z,28.30
2019-04-05T11:56:24.769Z,24.80
2019-04-05T11:57:24.654Z,29.30
2019-04-05T11:58:24.767Z,26.90
2019-04-05T11:59:24.676Z,25.60
2019-04-05T12:00:24.676Z,26.60
2019-04-05T12:01:24.605Z,29.10
2019-04-05T12:02:24.693Z,26.10
2019-04-05T12:03:24.600Z,23.40
2019-04-05T12:04:24.751Z,26.50
2019-04-05T12:05:26.967Z,26.80
2019-04-05T12:06:24.611Z,26.90
2019-04-05T12:07:26.622Z,28.20
2019-04-05T12:08:24.645Z,28.60
2019-04-05T12:09:24.569Z,27.70
2019-04-05T12:10:24.542Z,24.90
2019-04-05T12:11:24.502Z,28.90
2019-04-05T12:12:25.702Z,26.00
2019-04-05T12:13:24.499Z,26.40
2019-04-05T12:14:30.417Z,27.60
2019-04-05T12:15:25.491Z,27.10
2019-04-05T12:16:24.479Z,25.50
2019-04-05T12:17:24.455Z,27.10
2019-04-05T12:18:24.505Z,28.60
2019-04-05T12:19:24.422Z,26.80
2019-04-05T12:20:24.556Z,30.50
2019-04-05T12:21:24.402Z,29.60
2019-04-05T12:22:24.432Z,26.30
2019-04-05T12:23:24.391Z,26.20
2019-04-05T12:24:24.448Z,25.90
2019-04-05T12:25:24.386Z,24.80
2019-04-05T12:26:24.656Z,23.90
2019-04-05T12:27:24.499Z,26.60
2019-04-05T12:28:24.361Z,28.80
2019-04-05T12:29:24.320Z,26.90
2019-04-05T12:30:24.746Z,26.50
2019-04-05T12:31:24.293Z,27.20
2019-04-05T12:32:33.610Z,24.00
2019-04-05T12:33:25.261Z,27.90
2019-04-05T12:35:25.321Z,25.60
2019-04-05T12:36:24.417Z,27.40
2019-04-05T12:37:24.230Z,26.20
2019-04-05T12:38:28.453Z,27.70
2019-04-05T12:39:25.205Z,28.50
2019-04-05T12:40:24.278Z,26.70
2019-04-05T12:41:24.206Z,26.60
2019-04-05T12:42:24.268Z,27.60
2019-04-05T12:43:24.165Z,30.90
2019-04-05T12:44:24.265Z,25.80
2019-04-05T12:45:24.137Z,28.30
2019-04-05T12:46:24.518Z,28.40
2019-04-05T12:47:24.112Z,27.80
2019-04-05T12:48:24.198Z,26.60
2019-04-05T12:49:24.118Z,27.50
2019-04-05T12:50:24.140Z,28.10
2019-04-05T12:51:24.237Z,28.10
2019-04-05T12:52:27.409Z,29.60
2019-04-05T12:53:24.665Z,28.90
2019-04-05T12:54:24.149Z,32.70
2019-04-05T12:55:24.562Z,31.60
2019-04-05T12:56:26.606Z,30.60
2019-04-05T12:57:27.492Z,29.90
2019-04-05T12:58:25.988Z,32.80
2019-04-05T12:59:25.558Z,33.70
2019-04-05T13:00:26.072Z,34.70
2019-04-05T13:01:24.068Z,32.90
2019-04-05T13:02:33.338Z,34.20
2019-04-05T13:03:24.944Z,32.10
2019-04-05T13:04:23.997Z,32.50
2019-04-05T13:05:23.923Z,30.70
2019-04-05T13:06:24.065Z,32.10
2019-04-05T13:07:23.920Z,32.00